createdAt,value
2023-01-17T00:02:00.929Z,4.11
2023-01-17T00:04:46.335Z,3.94
2023-01-17T00:07:36.029Z,5.00
2023-01-17T00:10:07.360Z,4.03
2023-01-17T00:12:35.806Z,5.06
2023-01-17T00:15:04.036Z,5.02
2023-01-17T00:17:33.573Z,4.01
2023-01-17T00:20:20.220Z,3.77
2023-01-17T00:23:06.471Z,4.04
2023-01-17T00:25:55.618Z,3.79
2023-01-17T00:28:22.827Z,3.77
2023-01-17T00:30:49.790Z,4.25
2023-01-17T00:33:18.173Z,3.93
2023-01-17T00:35:44.937Z,4.79
2023-01-17T00:38:13.453Z,4.09
2023-01-17T00:40:42.959Z,4.00
2023-01-17T00:43:29.457Z,3.95
2023-01-17T00:46:14.982Z,4.21
2023-01-17T00:49:02.511Z,3.98
2023-01-17T00:51:49.211Z,4.02
2023-01-17T00:54:34.437Z,4.01
2023-01-17T00:57:20.951Z,4.36
2023-01-17T01:00:06.371Z,5.31
2023-01-17T01:02:52.064Z,4.13
2023-01-17T01:05:39.435Z,3.80
2023-01-17T01:08:35.821Z,3.91
2023-01-17T01:11:24.142Z,3.74
2023-01-17T01:14:09.890Z,3.81
2023-01-17T01:16:55.482Z,3.99
2023-01-17T01:19:40.854Z,5.02
2023-01-17T01:22:27.669Z,5.04
2023-01-17T01:25:12.870Z,5.29
2023-01-17T01:27:58.410Z,5.25
2023-01-17T01:30:43.636Z,4.15
2023-01-17T01:33:20.672Z,3.47
2023-01-17T01:35:50.391Z,3.63
2023-01-17T01:38:20.534Z,3.55
2023-01-17T01:40:50.779Z,3.67
2023-01-17T01:43:20.016Z,4.06
2023-01-17T01:45:53.512Z,3.54
2023-01-17T01:48:33.880Z,3.69
2023-01-17T01:51:04.037Z,4.37
2023-01-17T01:53:35.739Z,3.83
2023-01-17T01:56:06.777Z,4.06
2023-01-17T01:58:37.761Z,3.84
2023-01-17T02:01:08.350Z,3.53
2023-01-17T02:03:38.608Z,3.42
2023-01-17T02:06:16.146Z,3.58
2023-01-17T02:08:51.355Z,3.55
2023-01-17T02:11:20.058Z,3.52
2023-01-17T02:13:47.837Z,3.60
2023-01-17T02:16:30.889Z,3.42
2023-01-17T02:19:06.621Z,4.33
2023-01-17T02:21:42.710Z,4.71
2023-01-17T02:24:46.096Z,3.36
2023-01-17T02:27:25.591Z,3.05
2023-01-17T02:30:37.881Z,3.24
2023-01-17T02:33:23.552Z,3.17
2023-01-17T02:36:04.087Z,2.39
2023-01-17T02:38:39.161Z,1.96
2023-01-17T02:41:10.259Z,2.26
2023-01-17T02:43:38.525Z,1.69
2023-01-17T02:46:08.855Z,2.09
2023-01-17T02:48:39.986Z,2.01
2023-01-17T02:51:27.954Z,2.71
2023-01-17T02:54:11.288Z,2.24
2023-01-17T02:56:49.644Z,1.93
2023-01-17T02:59:34.450Z,2.07
2023-01-17T03:02:11.965Z,1.86
2023-01-17T03:04:48.121Z,1.96
2023-01-17T03:07:19.246Z,1.38
2023-01-17T03:09:53.469Z,1.51
2023-01-17T03:12:21.542Z,1.89
2023-01-17T03:14:49.318Z,1.64
2023-01-17T03:17:17.226Z,1.43
2023-01-17T03:19:46.330Z,1.43
2023-01-17T03:22:14.154Z,1.17
2023-01-17T03:24:41.913Z,0.89
2023-01-17T03:27:09.666Z,0.91
2023-01-17T03:29:37.432Z,1.49
2023-01-17T03:32:05.532Z,1.65
2023-01-17T03:34:33.345Z,0.78
2023-01-17T03:37:02.437Z,1.04
2023-01-17T03:39:30.284Z,0.77
2023-01-17T03:41:58.060Z,1.72
2023-01-17T03:44:25.815Z,1.02
2023-01-17T03:46:53.571Z,1.09
2023-01-17T03:49:21.323Z,0.90
2023-01-17T03:51:49.078Z,0.85
2023-01-17T03:54:18.171Z,0.50
2023-01-17T03:56:45.987Z,0.46
2023-01-17T03:59:13.745Z,0.96
2023-01-17T04:01:41.782Z,0.74
2023-01-17T04:04:09.594Z,1.55
2023-01-17T04:06:37.371Z,1.00
2023-01-17T04:09:05.177Z,1.22
2023-01-17T04:11:34.356Z,0.99
2023-01-17T04:14:02.088Z,1.08
2023-01-17T04:16:32.144Z,1.13
2023-01-17T04:19:00.006Z,1.00
2023-01-17T04:21:27.840Z,1.38
2023-01-17T04:23:55.578Z,1.07
2023-01-17T04:26:23.407Z,1.41
2023-01-17T04:28:52.534Z,1.47
2023-01-17T04:31:20.353Z,1.42
2023-01-17T04:33:48.201Z,1.49
2023-01-17T04:36:15.910Z,1.44
2023-01-17T04:38:43.636Z,1.38
2023-01-17T04:41:11.448Z,1.31
2023-01-17T04:43:39.191Z,1.27
2023-01-17T04:46:10.902Z,1.39
2023-01-17T04:48:38.749Z,1.89
2023-01-17T04:51:06.989Z,2.47
2023-01-17T04:53:35.006Z,2.60
2023-01-17T04:56:02.881Z,2.86
2023-01-17T04:58:30.929Z,2.01
2023-01-17T05:01:02.638Z,1.64
2023-01-17T05:03:32.314Z,2.20
2023-01-17T05:06:00.169Z,2.03
2023-01-17T05:08:27.956Z,1.83
2023-01-17T05:10:55.784Z,1.76
2023-01-17T05:13:23.580Z,2.07
2023-01-17T05:15:52.008Z,2.10
2023-01-17T05:18:20.264Z,1.98
2023-01-17T05:20:49.652Z,2.11
2023-01-17T05:23:17.825Z,2.12
2023-01-17T05:25:45.590Z,2.47
2023-01-17T05:28:14.371Z,2.20
2023-01-17T05:30:42.435Z,1.90
2023-01-17T05:33:11.165Z,1.90
2023-01-17T05:35:39.294Z,1.88
2023-01-17T05:38:08.491Z,2.20
2023-01-17T05:40:36.338Z,3.50
2023-01-17T05:43:04.517Z,3.52
2023-01-17T05:45:34.115Z,2.20
2023-01-17T05:48:03.255Z,2.24
2023-01-17T05:50:32.812Z,1.98
2023-01-17T05:53:02.515Z,2.07
2023-01-17T05:55:32.691Z,2.11
2023-01-17T05:58:01.397Z,2.09
2023-01-17T06:00:29.332Z,1.81
2023-01-17T06:02:59.150Z,1.55
2023-01-17T06:05:28.348Z,1.48
2023-01-17T06:07:56.502Z,1.75
2023-01-17T06:10:25.593Z,1.77
2023-01-17T06:13:04.442Z,1.65
2023-01-17T06:15:32.551Z,2.10
2023-01-17T06:18:05.718Z,1.50
2023-01-17T06:20:34.204Z,1.24
2023-01-17T06:23:04.243Z,1.52
2023-01-17T06:25:36.419Z,4.00
2023-01-17T06:28:06.198Z,0.89
2023-01-17T06:30:34.561Z,1.68
2023-01-17T06:33:02.702Z,1.69
2023-01-17T06:35:31.002Z,1.06
2023-01-17T06:38:00.264Z,1.27
2023-01-17T06:40:29.212Z,1.58
2023-01-17T06:43:01.562Z,1.32
2023-01-17T06:45:31.686Z,1.43
2023-01-17T06:48:00.687Z,1.57
2023-01-17T06:50:28.778Z,1.62
2023-01-17T06:52:57.606Z,1.41
2023-01-17T06:55:26.563Z,1.35
2023-01-17T06:57:54.856Z,1.62
2023-01-17T07:00:23.519Z,3.13
2023-01-17T07:02:53.304Z,2.42
2023-01-17T07:05:21.591Z,3.32
2023-01-17T07:07:49.425Z,2.90
2023-01-17T07:10:17.661Z,2.82
2023-01-17T07:12:45.469Z,2.70
2023-01-17T07:15:13.599Z,2.43
2023-01-17T07:17:41.372Z,2.46
2023-01-17T07:20:11.887Z,2.34
2023-01-17T07:22:39.702Z,3.00
2023-01-17T07:25:08.295Z,2.67
2023-01-17T07:27:36.095Z,2.77
2023-01-17T07:30:04.327Z,2.94
2023-01-17T07:32:32.130Z,2.70
2023-01-17T07:34:59.942Z,1.65
2023-01-17T07:37:29.010Z,1.63
2023-01-17T07:39:56.921Z,1.72
2023-01-17T07:42:24.691Z,1.80
2023-01-17T07:44:52.551Z,1.91
2023-01-17T07:47:21.008Z,2.17
2023-01-17T07:49:48.797Z,2.47
2023-01-17T07:52:18.223Z,2.44
2023-01-17T07:54:47.606Z,2.32
2023-01-17T07:57:15.485Z,2.60
2023-01-17T07:59:43.349Z,2.69
2023-01-17T08:02:18.684Z,2.79
2023-01-17T08:04:46.649Z,2.60
2023-01-17T08:07:14.965Z,2.86
2023-01-17T08:09:43.136Z,2.86
2023-01-17T08:12:12.298Z,2.56
2023-01-17T08:14:40.107Z,2.73
2023-01-17T08:17:10.148Z,2.67
2023-01-17T08:19:38.095Z,2.78
2023-01-17T08:22:06.045Z,2.62
2023-01-17T08:24:33.948Z,2.66
2023-01-17T08:27:01.712Z,2.77
2023-01-17T08:29:31.003Z,2.96
2023-01-17T08:31:58.841Z,3.26
2023-01-17T08:34:27.181Z,3.12
2023-01-17T08:36:55.395Z,2.98
2023-01-17T08:39:23.295Z,3.39
2023-01-17T08:41:51.215Z,3.31
2023-01-17T08:44:20.094Z,2.73
2023-01-17T08:46:49.425Z,2.65
2023-01-17T08:49:17.741Z,2.87
2023-01-17T08:51:45.544Z,2.92
2023-01-17T08:54:15.278Z,2.81
2023-01-17T08:56:43.772Z,2.90
2023-01-17T08:59:12.068Z,3.16
2023-01-17T09:01:41.987Z,3.01
2023-01-17T09:04:11.972Z,2.79
2023-01-17T09:06:40.984Z,2.89
2023-01-17T09:09:11.010Z,2.69
2023-01-17T09:11:39.118Z,2.69
2023-01-17T09:14:06.908Z,2.37
2023-01-17T09:16:34.732Z,2.69
2023-01-17T09:19:02.591Z,3.69
2023-01-17T09:21:31.984Z,3.59
2023-01-17T09:23:59.710Z,3.46
2023-01-17T09:26:29.456Z,2.80
2023-01-17T09:28:58.733Z,3.29
2023-01-17T09:31:27.105Z,3.18
2023-01-17T09:33:56.485Z,3.74
2023-01-17T09:36:29.122Z,4.03
2023-01-17T09:38:59.963Z,4.43
2023-01-17T09:41:31.089Z,4.44
2023-01-17T09:44:07.256Z,4.80
2023-01-17T09:46:40.430Z,4.75
2023-01-17T09:49:12.937Z,4.78
2023-01-17T09:51:42.178Z,4.41
2023-01-17T09:54:21.981Z,4.57
2023-01-17T09:56:58.405Z,5.49
2023-01-17T09:59:35.712Z,5.10
2023-01-17T10:02:21.220Z,5.24
2023-01-17T10:05:07.895Z,4.46
2023-01-17T10:07:46.335Z,5.03
2023-01-17T10:10:32.691Z,5.00
2023-01-17T10:13:10.167Z,5.09
2023-01-17T10:16:17.869Z,5.19
2023-01-17T10:19:07.925Z,5.20
2023-01-17T10:21:51.279Z,4.85
2023-01-17T10:24:31.409Z,4.18
2023-01-17T10:27:03.231Z,4.23
2023-01-17T10:29:35.658Z,4.74
2023-01-17T10:32:04.167Z,4.56
2023-01-17T10:34:37.843Z,4.93
2023-01-17T10:37:17.128Z,4.68
2023-01-17T10:39:47.891Z,4.57
2023-01-17T10:42:22.775Z,4.75
2023-01-17T10:44:59.479Z,4.91
2023-01-17T10:47:32.200Z,5.12
2023-01-17T10:50:03.110Z,5.68
2023-01-17T10:52:39.577Z,5.89
2023-01-17T10:55:22.667Z,8.10
2023-01-17T10:57:54.248Z,11.92
2023-01-17T11:00:32.949Z,12.27
2023-01-17T11:03:02.920Z,12.32
2023-01-17T11:05:32.459Z,13.36
2023-01-17T11:08:02.296Z,12.90
2023-01-17T11:10:39.946Z,11.50
2023-01-17T11:13:28.754Z,12.65
2023-01-17T11:15:58.876Z,10.49
2023-01-17T11:18:29.397Z,10.19
2023-01-17T11:21:12.769Z,9.38
2023-01-17T11:23:42.939Z,10.38
2023-01-17T11:26:13.803Z,10.29
2023-01-17T11:28:43.090Z,10.65
2023-01-17T11:31:25.964Z,10.76
2023-01-17T11:34:09.014Z,10.86
2023-01-17T11:36:36.938Z,11.34
2023-01-17T11:39:06.965Z,10.45
2023-01-17T11:41:36.797Z,9.96
2023-01-17T11:44:22.831Z,11.26
2023-01-17T11:47:08.292Z,10.95
2023-01-17T11:49:36.263Z,11.56
2023-01-17T11:52:09.884Z,11.11
2023-01-17T11:54:40.426Z,10.35
2023-01-17T11:57:21.031Z,9.44
2023-01-17T11:59:52.521Z,9.76
2023-01-17T12:02:38.665Z,11.01
2023-01-17T12:05:21.248Z,9.67
2023-01-17T12:07:58.322Z,9.66
2023-01-17T12:10:33.782Z,8.70
2023-01-17T12:13:29.003Z,8.75
2023-01-17T12:16:29.933Z,8.73
2023-01-17T12:19:13.781Z,9.17
2023-01-17T12:21:49.763Z,10.34
2023-01-17T12:24:36.955Z,9.79
2023-01-17T12:27:12.698Z,11.97
2023-01-17T12:30:00.008Z,11.08
2023-01-17T12:32:46.419Z,11.59
2023-01-17T12:35:18.766Z,12.02
2023-01-17T12:38:03.759Z,10.92
2023-01-17T12:40:38.036Z,12.97
2023-01-17T12:43:14.769Z,10.29
2023-01-17T12:45:44.786Z,10.25
2023-01-17T12:48:17.632Z,9.78
2023-01-17T12:50:51.846Z,9.65
2023-01-17T12:53:28.398Z,9.63
2023-01-17T12:56:01.262Z,9.83
2023-01-17T12:58:39.437Z,9.12
2023-01-17T13:01:19.570Z,9.19
2023-01-17T13:04:01.246Z,9.97
2023-01-17T13:06:37.086Z,10.12
2023-01-17T13:09:06.773Z,11.06
2023-01-17T13:11:41.145Z,11.05
2023-01-17T13:14:10.666Z,11.22
2023-01-17T13:16:44.279Z,11.89
2023-01-17T13:19:26.466Z,11.78
2023-01-17T13:21:59.208Z,12.61
2023-01-17T13:24:42.755Z,14.49
2023-01-17T13:27:31.912Z,17.44
2023-01-17T13:30:16.118Z,20.01
2023-01-17T13:33:07.237Z,17.70
2023-01-17T13:35:44.187Z,16.96
2023-01-17T13:38:31.627Z,15.73
2023-01-17T13:41:05.816Z,15.15
2023-01-17T13:43:39.335Z,15.73
2023-01-17T13:46:07.890Z,15.74
2023-01-17T13:48:37.635Z,12.80
2023-01-17T13:51:07.465Z,12.18
2023-01-17T13:54:00.226Z,13.73
2023-01-17T13:56:36.017Z,13.93
2023-01-17T13:59:06.395Z,12.43
2023-01-17T14:02:01.386Z,10.78
2023-01-17T14:05:02.926Z,10.74
2023-01-17T14:07:34.919Z,10.58
2023-01-17T14:10:09.926Z,11.08
2023-01-17T14:12:40.008Z,11.70
2023-01-17T14:15:22.197Z,13.67
2023-01-17T14:17:57.262Z,13.01
2023-01-17T14:20:49.801Z,12.67
2023-01-17T14:23:51.361Z,14.24
2023-01-17T14:26:26.268Z,12.73
2023-01-17T14:28:54.855Z,11.47
2023-01-17T14:31:25.149Z,11.01
2023-01-17T14:33:54.208Z,11.64
2023-01-17T14:36:29.469Z,11.41
2023-01-17T14:38:58.864Z,12.34
2023-01-17T14:41:30.373Z,12.56
2023-01-17T14:44:01.081Z,14.26
2023-01-17T14:46:31.282Z,12.54
2023-01-17T14:49:03.920Z,12.25
2023-01-17T14:51:35.041Z,12.03
2023-01-17T14:54:18.192Z,13.62
2023-01-17T14:56:46.697Z,13.75
2023-01-17T14:59:17.096Z,13.25
2023-01-17T15:02:06.339Z,13.82
2023-01-17T15:04:39.303Z,14.24
2023-01-17T15:07:08.489Z,13.21
2023-01-17T15:09:38.898Z,12.00
2023-01-17T15:12:10.606Z,12.14
2023-01-17T15:14:42.777Z,12.11
2023-01-17T15:17:12.767Z,11.36
2023-01-17T15:19:45.475Z,10.20
2023-01-17T15:22:13.985Z,9.54
2023-01-17T15:24:45.284Z,8.78
2023-01-17T15:27:15.069Z,8.67
2023-01-17T15:29:44.622Z,8.24
2023-01-17T15:32:20.693Z,8.28
2023-01-17T15:34:50.959Z,7.68
2023-01-17T15:37:30.187Z,7.80
2023-01-17T15:40:08.962Z,7.56
2023-01-17T15:42:40.052Z,7.59
2023-01-17T15:45:15.556Z,7.58
2023-01-17T15:47:44.047Z,7.21
2023-01-17T15:50:30.766Z,7.11
2023-01-17T15:53:01.397Z,6.53
2023-01-17T15:55:34.321Z,6.44
2023-01-17T15:58:03.901Z,6.51
2023-01-17T16:00:39.247Z,6.53
2023-01-17T16:03:23.491Z,6.76
2023-01-17T16:05:53.044Z,6.74
2023-01-17T16:08:39.745Z,6.52
2023-01-17T16:11:13.060Z,6.32
2023-01-17T16:13:43.144Z,5.46
2023-01-17T16:16:20.838Z,5.87
2023-01-17T16:18:49.939Z,5.75
2023-01-17T16:21:26.174Z,5.66
2023-01-17T16:23:55.315Z,5.81
2023-01-17T16:26:25.123Z,5.76
2023-01-17T16:28:53.225Z,5.69
2023-01-17T16:31:21.464Z,5.46
2023-01-17T16:33:50.681Z,5.32
2023-01-17T16:36:20.715Z,5.27
2023-01-17T16:38:51.378Z,4.69
2023-01-17T16:41:19.463Z,4.76
2023-01-17T16:43:58.311Z,5.01
2023-01-17T16:46:27.037Z,5.06
2023-01-17T16:48:55.018Z,4.80
2023-01-17T16:51:22.767Z,4.89
2023-01-17T16:53:50.679Z,4.83
2023-01-17T16:56:19.697Z,4.43
2023-01-17T16:58:48.745Z,4.72
2023-01-17T17:01:20.930Z,4.45
2023-01-17T17:03:49.220Z,4.57
2023-01-17T17:06:17.134Z,4.76
2023-01-17T17:08:44.885Z,4.71
2023-01-17T17:11:14.910Z,4.37
2023-01-17T17:13:44.173Z,4.55
2023-01-17T17:16:18.707Z,4.25
2023-01-17T17:18:48.262Z,3.78
2023-01-17T17:21:16.018Z,3.40
2023-01-17T17:23:43.851Z,3.47
2023-01-17T17:26:11.591Z,3.61
2023-01-17T17:28:39.353Z,3.24
2023-01-17T17:31:10.401Z,3.15
2023-01-17T17:33:39.802Z,3.00
2023-01-17T17:36:10.061Z,3.35
2023-01-17T17:38:50.896Z,4.98
2023-01-17T17:41:21.224Z,5.48
2023-01-17T17:43:49.368Z,5.37
2023-01-17T17:46:17.156Z,1.36
2023-01-17T17:48:46.310Z,0.99
2023-01-17T17:51:25.864Z,0.39
2023-01-17T17:53:54.633Z,0.73
2023-01-17T17:56:22.908Z,0.59
2023-01-17T17:58:51.165Z,0.36
2023-01-17T18:01:19.310Z,0.45
2023-01-17T18:03:48.437Z,0.59
2023-01-17T18:06:17.343Z,0.59
2023-01-17T18:08:45.424Z,0.66
2023-01-17T18:11:17.777Z,0.58
2023-01-17T18:13:47.592Z,0.12
2023-01-17T18:16:17.039Z,0.26
2023-01-17T18:18:48.795Z,0.30
2023-01-17T18:21:23.434Z,0.38
2023-01-17T18:23:54.375Z,0.28
2023-01-17T18:26:24.668Z,0.33
2023-01-17T18:28:53.228Z,0.29
2023-01-17T18:31:21.367Z,-0.09
2023-01-17T18:33:49.190Z,0.27
2023-01-17T18:36:18.558Z,0.53
2023-01-17T18:38:47.844Z,0.47
2023-01-17T18:41:17.904Z,0.12
2023-01-17T18:43:46.463Z,0.16
2023-01-17T18:46:14.765Z,0.67
2023-01-17T18:48:42.676Z,0.71
2023-01-17T18:51:12.103Z,0.43
2023-01-17T18:53:42.436Z,0.45
2023-01-17T18:56:12.401Z,0.01
2023-01-17T18:58:41.937Z,0.78
2023-01-17T19:01:11.839Z,-0.07
2023-01-17T19:03:41.009Z,0.48
2023-01-17T19:06:10.800Z,0.47
2023-01-17T19:08:38.728Z,0.51
2023-01-17T19:11:08.365Z,0.48
2023-01-17T19:13:38.129Z,-0.30
2023-01-17T19:16:08.271Z,0.09
2023-01-17T19:18:36.363Z,0.29
2023-01-17T19:21:05.390Z,-0.36
2023-01-17T19:23:34.416Z,-0.40
2023-01-17T19:26:02.435Z,-0.31
2023-01-17T19:28:33.123Z,0.49
2023-01-17T19:31:06.699Z,-0.20
2023-01-17T19:33:35.821Z,-0.51
2023-01-17T19:36:05.787Z,-0.72
2023-01-17T19:38:35.874Z,-1.05
2023-01-17T19:41:09.516Z,-0.66
2023-01-17T19:43:39.357Z,-1.02
2023-01-17T19:46:09.005Z,-0.75
2023-01-17T19:48:37.740Z,-0.75
2023-01-17T19:51:07.994Z,-1.11
2023-01-17T19:53:37.169Z,-1.04
2023-01-17T19:56:09.518Z,-1.12
2023-01-17T19:58:39.512Z,-0.60
2023-01-17T20:01:08.879Z,-0.13
2023-01-17T20:03:37.341Z,-0.10
2023-01-17T20:06:06.151Z,0.02
2023-01-17T20:08:34.083Z,0.04
2023-01-17T20:11:03.013Z,0.62
2023-01-17T20:13:31.095Z,0.72
2023-01-17T20:16:03.303Z,0.69
2023-01-17T20:18:31.098Z,0.44
2023-01-17T20:21:03.883Z,0.53
2023-01-17T20:23:35.147Z,0.45
2023-01-17T20:26:03.453Z,0.24
2023-01-17T20:28:33.083Z,0.24
2023-01-17T20:31:07.873Z,0.04
2023-01-17T20:33:36.201Z,-0.25
2023-01-17T20:36:10.569Z,-0.72
2023-01-17T20:38:46.178Z,-0.54
2023-01-17T20:41:16.429Z,-0.77
2023-01-17T20:43:45.987Z,-0.96
2023-01-17T20:46:17.533Z,-0.94
2023-01-17T20:48:46.440Z,-1.00
2023-01-17T20:51:15.626Z,-0.76
2023-01-17T20:53:44.607Z,-1.07
2023-01-17T20:56:14.043Z,-1.01
2023-01-17T20:58:42.830Z,-0.94
2023-01-17T21:01:12.251Z,-1.22
2023-01-17T21:03:41.447Z,-0.97
2023-01-17T21:06:11.918Z,-0.45
2023-01-17T21:08:41.238Z,0.06
2023-01-17T21:11:10.827Z,-0.29
2023-01-17T21:13:39.174Z,-0.64
2023-01-17T21:16:09.317Z,-0.72
2023-01-17T21:18:37.390Z,0.21
2023-01-17T21:21:08.299Z,0.44
2023-01-17T21:23:36.679Z,0.78
2023-01-17T21:26:04.831Z,0.70
2023-01-17T21:28:35.788Z,0.66
2023-01-17T21:31:17.906Z,0.73
2023-01-17T21:33:46.021Z,1.06
2023-01-17T21:36:16.274Z,1.19
2023-01-17T21:38:45.361Z,0.73
2023-01-17T21:41:13.163Z,0.62
2023-01-17T21:43:40.974Z,1.05
2023-01-17T21:46:08.878Z,0.70
2023-01-17T21:48:36.661Z,0.84
2023-01-17T21:51:05.789Z,0.97
2023-01-17T21:53:35.314Z,0.57
2023-01-17T21:56:21.662Z,0.76
2023-01-17T21:58:53.784Z,0.40
2023-01-17T22:01:23.479Z,-0.31
2023-01-17T22:03:53.092Z,-0.64
2023-01-17T22:06:22.533Z,0.01
2023-01-17T22:08:51.659Z,-0.03
2023-01-17T22:11:22.002Z,0.30
2023-01-17T22:13:51.067Z,0.64
2023-01-17T22:16:21.448Z,-0.24
2023-01-17T22:18:49.444Z,-0.57
2023-01-17T22:21:19.244Z,-0.39
2023-01-17T22:23:48.731Z,-0.36
2023-01-17T22:26:18.650Z,-0.05
2023-01-17T22:28:46.458Z,0.24
2023-01-17T22:31:16.209Z,0.40
2023-01-17T22:33:46.109Z,0.71
2023-01-17T22:36:15.727Z,0.61
2023-01-17T22:38:45.640Z,0.42
2023-01-17T22:41:16.149Z,-0.03
2023-01-17T22:43:47.666Z,-0.37
2023-01-17T22:46:18.004Z,-0.47
2023-01-17T22:48:46.424Z,-0.56
2023-01-17T22:51:16.381Z,-0.68
2023-01-17T22:53:46.088Z,-0.88
2023-01-17T22:56:16.561Z,-1.04
2023-01-17T22:58:48.046Z,-1.15
2023-01-17T23:01:17.493Z,-1.12
2023-01-17T23:03:46.566Z,-1.39
2023-01-17T23:06:16.413Z,-1.04
2023-01-17T23:08:46.100Z,-1.50
2023-01-17T23:11:42.356Z,-1.43
2023-01-17T23:14:14.487Z,-1.34
2023-01-17T23:17:02.606Z,-1.30
2023-01-17T23:19:32.906Z,-1.16
2023-01-17T23:22:17.373Z,-1.13
2023-01-17T23:24:47.614Z,-1.61
2023-01-17T23:27:35.005Z,-1.27
2023-01-17T23:30:05.763Z,-0.84
2023-01-17T23:32:33.566Z,-1.02
2023-01-17T23:35:01.355Z,-0.62
2023-01-17T23:37:44.488Z,-0.88
2023-01-17T23:40:13.522Z,-1.07
2023-01-17T23:42:59.394Z,-1.14
2023-01-17T23:45:29.184Z,-0.88
2023-01-17T23:47:56.966Z,-0.67
2023-01-17T23:50:24.735Z,-0.54
2023-01-17T23:52:52.513Z,-0.51
2023-01-17T23:55:20.505Z,-0.67
2023-01-17T23:57:50.164Z,-0.97
